Time;durP1;ratioP1;P1;durP2;ratioP2;P2;SDS_P1;SDS_P2;PMS_P1;PMS_P2;Temp;Humidity;BMP_temperature;BMP_pressure;BME280_temperature;BME280_humidity;BME280_pressure;Samples;Min_cycle;Max_cycle;Signal;HPM_P1;HPM_P2
2023/04/16 00:01:37;;;;;;;;;;;10.30;99.90;;;;;;4922743;29;20356;-73
2023/04/16 00:04:02;;;;;;;;;;;10.30;99.90;;;;;;4938400;29;19915;-74
2023/04/16 00:06:28;;;;;;;;;;;10.20;99.90;;;;;;4918748;29;19930;-73
2023/04/16 00:08:53;;;;;;;;;;;10.20;99.90;;;;;;4937667;29;19924;-73
2023/04/16 00:11:19;;;;;;;;;;;10.00;99.90;;;;;;4919842;29;19997;-73
2023/04/16 00:13:47;;;;;;;;;;;10.00;99.90;;;;;;4944923;29;19930;-72
2023/04/16 00:16:15;;;;;;;;;;;9.90;99.90;;;;;;4941172;29;20375;-72
2023/04/16 00:18:41;;;;;;;;;;;9.90;99.90;;;;;;4943948;29;20287;-73
2023/04/16 00:21:06;;;;;;;;;;;9.90;99.90;;;;;;4928578;29;19914;-73
2023/04/16 00:23:34;;;;;;;;;;;9.90;99.90;;;;;;4945413;29;20008;-73
2023/04/16 00:26:00;;;;;;;;;;;9.90;99.90;;;;;;4948925;29;19918;-73
2023/04/16 00:28:26;;;;;;;;;;;9.90;99.90;;;;;;4944694;29;19911;-73
2023/04/16 00:30:52;;;;;;;;;;;9.80;99.90;;;;;;4924902;29;19914;-73
2023/04/16 00:33:18;;;;;;;;;;;9.80;99.90;;;;;;4926020;29;19914;-73
2023/04/16 00:35:46;;;;;;;;;;;9.80;99.90;;;;;;4929236;29;19973;-73
2023/04/16 00:38:12;;;;;;;;;;;9.90;99.90;;;;;;4925004;29;19985;-73
2023/04/16 00:40:38;;;;;;;;;;;9.80;99.90;;;;;;4945571;29;19982;-72
2023/04/16 00:43:05;;;;;;;;;;;9.60;99.90;;;;;;4924813;29;20259;-73
2023/04/16 00:45:30;;;;;;;;;;;9.50;99.90;;;;;;4913017;29;19922;-73
2023/04/16 00:47:57;;;;;;;;;;;9.40;99.90;;;;;;4941918;29;19922;-73
2023/04/16 00:50:22;;;;;;;;;;;9.40;99.90;;;;;;4921047;29;20529;-73
2023/04/16 00:52:48;;;;;;;;;;;9.40;99.90;;;;;;4946707;29;19914;-73
2023/04/16 00:55:14;;;;;;;;;;;9.40;99.90;;;;;;4926728;29;19953;-72
2023/04/16 00:57:40;;;;;;;;;;;9.40;99.90;;;;;;4926616;29;19914;-73
2023/04/16 01:00:06;;;;;;;;;;;9.40;99.90;;;;;;4926048;29;19919;-73
2023/04/16 01:02:32;;;;;;;;;;;9.50;99.90;;;;;;4932223;29;19914;-73
2023/04/16 01:04:57;;;;;;;;;;;9.40;99.90;;;;;;4935423;29;20005;-73
2023/04/16 01:07:23;;;;;;;;;;;9.30;99.90;;;;;;4942703;29;20021;-73
2023/04/16 01:09:49;;;;;;;;;;;9.30;99.90;;;;;;4946901;28;19914;-73
2023/04/16 01:12:14;;;;;;;;;;;9.30;99.90;;;;;;4914894;29;19925;-73
2023/04/16 01:14:40;;;;;;;;;;;9.40;99.90;;;;;;4912152;29;20235;-73
2023/04/16 01:17:05;;;;;;;;;;;9.40;99.90;;;;;;4936982;29;19988;-73
2023/04/16 01:19:31;;;;;;;;;;;9.40;99.90;;;;;;4937371;28;19918;-73
2023/04/16 01:21:57;;;;;;;;;;;9.40;99.90;;;;;;4934615;29;19918;-73
2023/04/16 01:24:23;;;;;;;;;;;9.40;99.90;;;;;;4942148;29;20312;-73
2023/04/16 01:26:48;;;;;;;;;;;9.40;99.90;;;;;;4936596;29;20291;-74
2023/04/16 01:29:14;;;;;;;;;;;9.40;99.90;;;;;;4923099;29;20430;-73
2023/04/16 01:31:40;;;;;;;;;;;9.40;99.90;;;;;;4934896;29;20267;-73
2023/04/16 01:34:06;;;;;;;;;;;9.40;99.90;;;;;;4944577;29;20017;-73
2023/04/16 01:36:34;;;;;;;;;;;9.40;99.90;;;;;;4923100;29;19927;-73
2023/04/16 01:38:59;;;;;;;;;;;9.40;99.90;;;;;;4915863;29;19914;-73
2023/04/16 01:41:25;;;;;;;;;;;9.40;99.90;;;;;;4923696;29;19918;-73
2023/04/16 01:43:51;;;;;;;;;;;9.40;99.90;;;;;;4948724;28;20394;-73
2023/04/16 01:46:20;;;;;;;;;;;9.30;99.90;;;;;;4923138;29;19993;-73
2023/04/16 01:48:47;;;;;;;;;;;9.40;99.90;;;;;;4925459;29;19930;-73
2023/04/16 01:51:12;;;;;;;;;;;9.40;99.90;;;;;;4928411;29;19945;-73
2023/04/16 01:53:38;;;;;;;;;;;9.20;99.90;;;;;;4949149;29;19918;-73
2023/04/16 01:56:04;;;;;;;;;;;9.20;99.90;;;;;;4904524;29;20017;-73
2023/04/16 01:58:30;;;;;;;;;;;9.20;99.90;;;;;;4929473;29;19949;-73
2023/04/16 02:00:56;;;;;;;;;;;9.20;99.90;;;;;;4942010;29;19914;-73
2023/04/16 02:03:23;;;;;;;;;;;9.20;99.90;;;;;;4919691;29;19915;-73
2023/04/16 02:05:49;;;;;;;;;;;9.20;99.90;;;;;;4926131;29;19969;-73
2023/04/16 02:08:15;;;;;;;;;;;9.20;99.90;;;;;;4946830;28;19942;-73
2023/04/16 02:10:40;;;;;;;;;;;9.20;99.90;;;;;;4948093;29;19964;-73
2023/04/16 02:13:06;;;;;;;;;;;9.10;99.90;;;;;;4926658;29;19918;-73
2023/04/16 02:15:33;;;;;;;;;;;9.10;99.90;;;;;;4931802;29;19914;-73
2023/04/16 02:17:58;;;;;;;;;;;9.20;99.90;;;;;;4927733;29;19965;-73
2023/04/16 02:20:24;;;;;;;;;;;9.20;99.90;;;;;;4952792;28;19911;-73
2023/04/16 02:22:50;;;;;;;;;;;9.20;99.90;;;;;;4925309;29;20403;-73
2023/04/16 02:25:15;;;;;;;;;;;9.20;99.90;;;;;;4923994;29;20354;-73
2023/04/16 02:27:41;;;;;;;;;;;9.20;99.90;;;;;;4913642;29;19973;-73
2023/04/16 02:30:07;;;;;;;;;;;9.20;99.90;;;;;;4923498;29;19915;-73
2023/04/16 02:32:32;;;;;;;;;;;9.20;99.90;;;;;;4936912;29;19949;-73
2023/04/16 02:34:58;;;;;;;;;;;9.00;99.90;;;;;;4924291;29;20311;-73
2023/04/16 02:37:24;;;;;;;;;;;9.10;99.90;;;;;;4943262;29;19915;-73
2023/04/16 02:39:51;;;;;;;;;;;8.90;99.90;;;;;;4942921;28;19915;-73
2023/04/16 02:42:16;;;;;;;;;;;8.90;99.90;;;;;;4934888;29;20228;-73
2023/04/16 02:44:42;;;;;;;;;;;8.80;99.90;;;;;;4945435;29;20343;-73
2023/04/16 02:47:08;;;;;;;;;;;8.80;99.90;;;;;;4931341;29;19918;-73
2023/04/16 02:49:34;;;;;;;;;;;8.80;99.90;;;;;;4930666;29;19920;-73
2023/04/16 02:52:00;;;;;;;;;;;8.90;99.90;;;;;;4952565;29;19918;-73
2023/04/16 02:54:25;;;;;;;;;;;8.90;99.90;;;;;;4938354;29;19974;-73
2023/04/16 02:56:51;;;;;;;;;;;8.90;99.90;;;;;;4949101;28;19914;-73
2023/04/16 02:59:17;;;;;;;;;;;8.90;99.90;;;;;;4945074;29;19950;-73
2023/04/16 03:01:42;;;;;;;;;;;8.90;99.90;;;;;;4920285;29;20408;-74
2023/04/16 03:04:08;;;;;;;;;;;8.90;99.90;;;;;;4928999;29;19914;-73
2023/04/16 03:06:33;;;;;;;;;;;8.80;99.90;;;;;;4940026;29;20006;-73
2023/04/16 03:08:59;;;;;;;;;;;8.90;99.90;;;;;;4921001;29;19950;-73
2023/04/16 03:11:25;;;;;;;;;;;8.90;99.90;;;;;;4944603;29;20007;-73
2023/04/16 03:13:50;;;;;;;;;;;8.70;99.90;;;;;;4930064;29;20599;-73
2023/04/16 03:16:16;;;;;;;;;;;8.80;99.90;;;;;;4935387;29;19926;-73
2023/04/16 03:18:42;;;;;;;;;;;8.70;99.90;;;;;;4909404;29;20012;-73
2023/04/16 03:21:07;;;;;;;;;;;8.70;99.90;;;;;;4919392;29;19915;-73
2023/04/16 03:23:34;;;;;;;;;;;8.80;99.90;;;;;;4943989;29;19915;-73
2023/04/16 03:26:00;;;;;;;;;;;8.90;99.90;;;;;;4937928;28;20322;-73
2023/04/16 03:28:25;;;;;;;;;;;8.90;99.90;;;;;;4938235;29;19926;-73
2023/04/16 03:30:51;;;;;;;;;;;8.90;99.90;;;;;;4924587;29;19926;-73
2023/04/16 03:33:17;;;;;;;;;;;8.80;99.90;;;;;;4918521;29;19989;-74
2023/04/16 03:35:43;;;;;;;;;;;8.80;99.90;;;;;;4945209;29;19918;-73
2023/04/16 03:38:08;;;;;;;;;;;8.60;99.90;;;;;;4929288;29;20232;-73
2023/04/16 03:40:34;;;;;;;;;;;8.50;99.90;;;;;;4949072;28;19911;-74
2023/04/16 03:43:00;;;;;;;;;;;8.60;99.90;;;;;;4944257;29;19915;-73
2023/04/16 03:45:25;;;;;;;;;;;8.60;99.90;;;;;;4915909;29;19926;-73
2023/04/16 03:47:51;;;;;;;;;;;8.70;99.90;;;;;;4932133;29;20323;-73
2023/04/16 03:50:18;;;;;;;;;;;8.60;99.90;;;;;;4925982;29;19925;-73
2023/04/16 03:52:43;;;;;;;;;;;8.60;99.90;;;;;;4935700;29;19914;-73
2023/04/16 03:55:11;;;;;;;;;;;8.60;99.90;;;;;;4946735;29;19914;-73
2023/04/16 03:57:36;;;;;;;;;;;8.70;99.90;;;;;;4950620;28;19993;-73
2023/04/16 04:00:03;;;;;;;;;;;8.70;99.90;;;;;;4931951;29;20069;-73
2023/04/16 04:02:28;;;;;;;;;;;8.70;99.90;;;;;;4943938;29;19914;-73
2023/04/16 04:04:54;;;;;;;;;;;8.60;99.90;;;;;;4937765;29;19914;-73
2023/04/16 04:07:19;;;;;;;;;;;8.60;99.90;;;;;;4922725;29;19967;-73
2023/04/16 04:09:45;;;;;;;;;;;8.40;99.90;;;;;;4933994;29;19919;-73
2023/04/16 04:12:10;;;;;;;;;;;8.40;99.90;;;;;;4928314;29;19918;-73
2023/04/16 04:14:38;;;;;;;;;;;8.40;99.90;;;;;;4932193;29;19914;-73
2023/04/16 04:17:04;;;;;;;;;;;8.40;99.90;;;;;;4926260;29;19954;-73
2023/04/16 04:19:30;;;;;;;;;;;8.30;99.90;;;;;;4928694;29;20024;-73
2023/04/16 04:21:56;;;;;;;;;;;8.40;99.90;;;;;;4945015;28;20415;-73
2023/04/16 04:24:21;;;;;;;;;;;8.40;99.90;;;;;;4927760;29;20315;-73
2023/04/16 04:26:47;;;;;;;;;;;8.40;99.90;;;;;;4943264;29;19923;-73
2023/04/16 04:29:12;;;;;;;;;;;8.50;99.90;;;;;;4941873;29;20304;-73
2023/04/16 04:31:38;;;;;;;;;;;8.40;99.90;;;;;;4930739;29;19914;-73
2023/04/16 04:34:04;;;;;;;;;;;8.50;99.90;;;;;;4952200;28;19915;-73
2023/04/16 04:36:31;;;;;;;;;;;8.50;99.90;;;;;;4930115;29;20025;-73
2023/04/16 04:38:57;;;;;;;;;;;8.50;99.90;;;;;;4941027;29;19915;-73
2023/04/16 04:41:25;;;;;;;;;;;8.50;99.90;;;;;;4941479;29;19936;-73
2023/04/16 04:43:51;;;;;;;;;;;8.60;99.90;;;;;;4929547;29;20383;-73
2023/04/16 04:46:17;;;;;;;;;;;8.60;99.90;;;;;;4955273;29;19911;-73
2023/04/16 04:48:42;;;;;;;;;;;8.70;99.90;;;;;;4942684;29;19914;-73
2023/04/16 04:51:08;;;;;;;;;;;8.60;99.90;;;;;;4944741;28;19910;-72
2023/04/16 04:53:33;;;;;;;;;;;8.50;99.90;;;;;;4941836;29;20572;-73
2023/04/16 04:55:59;;;;;;;;;;;8.50;99.90;;;;;;4925986;29;19973;-73
2023/04/16 04:58:24;;;;;;;;;;;8.40;99.90;;;;;;4913625;29;19950;-73
2023/04/16 05:00:50;;;;;;;;;;;8.40;99.90;;;;;;4918549;29;19922;-73
2023/04/16 05:03:18;;;;;;;;;;;8.50;99.90;;;;;;4947703;29;20328;-73
2023/04/16 05:05:43;;;;;;;;;;;8.60;99.90;;;;;;4930969;29;19911;-73
2023/04/16 05:08:09;;;;;;;;;;;8.60;99.90;;;;;;4931441;29;19999;-74
2023/04/16 05:10:35;;;;;;;;;;;8.40;99.90;;;;;;4947533;29;19915;-73
2023/04/16 05:13:00;;;;;;;;;;;8.50;99.90;;;;;;4945225;28;19960;-73
2023/04/16 05:15:26;;;;;;;;;;;8.50;99.90;;;;;;4926614;29;19915;-73
2023/04/16 05:17:52;;;;;;;;;;;8.40;99.90;;;;;;4942875;29;19945;-73
2023/04/16 05:20:17;;;;;;;;;;;8.50;99.90;;;;;;4926266;29;19969;-73
2023/04/16 05:22:43;;;;;;;;;;;8.60;99.90;;;;;;4929336;29;20005;-74
2023/04/16 05:25:09;;;;;;;;;;;8.50;99.90;;;;;;4943364;29;19953;-74
2023/04/16 05:27:35;;;;;;;;;;;8.60;99.90;;;;;;4928686;29;19934;-73
2023/04/16 05:30:01;;;;;;;;;;;8.50;99.90;;;;;;4930012;29;20346;-73
2023/04/16 05:32:27;;;;;;;;;;;8.50;99.90;;;;;;4942571;28;20005;-73
2023/04/16 05:34:52;;;;;;;;;;;8.50;99.90;;;;;;4916513;29;19959;-73
2023/04/16 05:37:18;;;;;;;;;;;8.60;99.90;;;;;;4927533;29;19932;-72
2023/04/16 05:39:44;;;;;;;;;;;8.60;99.90;;;;;;4924128;29;19914;-73
2023/04/16 05:42:09;;;;;;;;;;;8.70;99.90;;;;;;4949946;29;20333;-73
2023/04/16 05:44:35;;;;;;;;;;;8.60;99.90;;;;;;4934034;29;19929;-73
2023/04/16 05:47:01;;;;;;;;;;;8.70;99.90;;;;;;4953191;29;20266;-73
2023/04/16 05:49:26;;;;;;;;;;;8.70;99.90;;;;;;4930840;29;19970;-73
2023/04/16 05:51:52;;;;;;;;;;;8.70;99.90;;;;;;4939928;29;19922;-73
2023/04/16 05:54:18;;;;;;;;;;;8.70;99.90;;;;;;4910837;29;19915;-73
2023/04/16 05:56:43;;;;;;;;;;;8.70;99.90;;;;;;4943210;29;19917;-73
2023/04/16 05:59:09;;;;;;;;;;;8.60;99.90;;;;;;4935653;29;19910;-73
2023/04/16 06:01:35;;;;;;;;;;;8.60;99.90;;;;;;4944653;29;19917;-73
2023/04/16 06:04:00;;;;;;;;;;;8.50;99.90;;;;;;4909396;29;20243;-73
2023/04/16 06:06:26;;;;;;;;;;;8.60;99.90;;;;;;4930895;29;19921;-73
2023/04/16 06:08:52;;;;;;;;;;;8.60;99.90;;;;;;4938136;29;19910;-73
2023/04/16 06:11:17;;;;;;;;;;;8.60;99.90;;;;;;4926990;29;19914;-73
2023/04/16 06:13:44;;;;;;;;;;;8.60;99.90;;;;;;4947403;29;19922;-73
2023/04/16 06:16:10;;;;;;;;;;;8.70;99.90;;;;;;4941520;29;19944;-73
2023/04/16 06:18:35;;;;;;;;;;;8.60;99.90;;;;;;4947100;28;19918;-73
2023/04/16 06:21:02;;;;;;;;;;;8.60;99.90;;;;;;4916096;29;19992;-73
2023/04/16 06:23:27;;;;;;;;;;;8.60;99.90;;;;;;4929486;29;19925;-73
2023/04/16 06:25:53;;;;;;;;;;;8.60;99.90;;;;;;4939162;29;20346;-73
2023/04/16 06:28:18;;;;;;;;;;;8.70;99.90;;;;;;4937103;29;19934;-73
2023/04/16 06:30:45;;;;;;;;;;;8.70;99.90;;;;;;4948721;28;20251;-73
2023/04/16 06:33:11;;;;;;;;;;;8.70;99.90;;;;;;4952045;29;19934;-73
2023/04/16 06:35:36;;;;;;;;;;;8.70;99.90;;;;;;4937678;29;19911;-73
2023/04/16 06:38:02;;;;;;;;;;;8.60;99.90;;;;;;4932523;29;19918;-73
2023/04/16 06:40:28;;;;;;;;;;;8.60;99.90;;;;;;4946030;29;20553;-73
2023/04/16 06:42:53;;;;;;;;;;;8.70;99.90;;;;;;4942614;29;19910;-73
2023/04/16 06:45:19;;;;;;;;;;;8.60;99.90;;;;;;4948523;29;19922;-73
2023/04/16 06:47:45;;;;;;;;;;;8.60;99.90;;;;;;4934953;29;19923;-73
2023/04/16 06:50:10;;;;;;;;;;;8.60;99.90;;;;;;4924873;29;19957;-73
2023/04/16 06:52:36;;;;;;;;;;;8.70;99.90;;;;;;4925509;29;19966;-73
2023/04/16 06:55:02;;;;;;;;;;;8.60;99.90;;;;;;4925141;29;19915;-73
2023/04/16 06:57:27;;;;;;;;;;;8.70;99.90;;;;;;4942267;29;19982;-73
2023/04/16 06:59:53;;;;;;;;;;;8.70;99.90;;;;;;4910684;29;19910;-73
2023/04/16 07:02:18;;;;;;;;;;;8.70;99.90;;;;;;4935973;28;19915;-73
2023/04/16 07:04:44;;;;;;;;;;;8.70;99.90;;;;;;4917691;29;19938;-73
2023/04/16 07:07:10;;;;;;;;;;;8.60;99.90;;;;;;4931212;29;19918;-73
2023/04/16 07:09:35;;;;;;;;;;;8.60;99.90;;;;;;4938691;29;19918;-73
2023/04/16 07:12:01;;;;;;;;;;;8.60;99.90;;;;;;4950098;29;19922;-73
2023/04/16 07:14:26;;;;;;;;;;;8.60;99.90;;;;;;4927326;29;19917;-73
2023/04/16 07:16:52;;;;;;;;;;;8.60;99.90;;;;;;4954781;29;20006;-73
2023/04/16 07:19:18;;;;;;;;;;;8.70;99.90;;;;;;4918651;29;19958;-73
2023/04/16 07:21:43;;;;;;;;;;;8.70;99.90;;;;;;4951194;29;19946;-73
2023/04/16 07:24:10;;;;;;;;;;;8.80;99.90;;;;;;4931576;29;19946;-73
2023/04/16 07:26:36;;;;;;;;;;;8.80;99.90;;;;;;4943595;29;19923;-73
2023/04/16 07:29:01;;;;;;;;;;;8.70;99.90;;;;;;4930211;29;19914;-73
2023/04/16 07:31:27;;;;;;;;;;;8.80;99.90;;;;;;4941846;28;19915;-74
2023/04/16 07:33:53;;;;;;;;;;;8.70;99.90;;;;;;4941804;29;19925;-73
2023/04/16 07:36:19;;;;;;;;;;;8.80;99.90;;;;;;4943988;28;20261;-73
2023/04/16 07:38:45;;;;;;;;;;;8.80;99.90;;;;;;4909677;29;19919;-73
2023/04/16 07:41:10;;;;;;;;;;;8.80;99.90;;;;;;4928539;29;19914;-73
2023/04/16 07:43:36;;;;;;;;;;;8.70;99.90;;;;;;4937198;28;19943;-73
2023/04/16 07:46:02;;;;;;;;;;;8.80;99.90;;;;;;4940958;29;19919;-73
2023/04/16 07:48:27;;;;;;;;;;;8.80;99.90;;;;;;4921664;29;19925;-73
2023/04/16 07:50:53;;;;;;;;;;;8.80;99.90;;;;;;4947287;29;19914;-73
2023/04/16 07:53:18;;;;;;;;;;;8.80;99.90;;;;;;4943458;29;20209;-73
2023/04/16 07:55:44;;;;;;;;;;;8.80;99.90;;;;;;4929714;29;19922;-73
2023/04/16 07:58:10;;;;;;;;;;;8.80;99.90;;;;;;4909561;29;19977;-73
2023/04/16 08:00:36;;;;;;;;;;;8.90;99.90;;;;;;4918475;29;19915;-73
2023/04/16 08:03:01;;;;;;;;;;;8.90;99.90;;;;;;4944069;28;19922;-73
2023/04/16 08:05:27;;;;;;;;;;;8.90;99.90;;;;;;4928094;29;19918;-73
2023/04/16 08:07:53;;;;;;;;;;;8.90;99.90;;;;;;4934094;29;19930;-73
2023/04/16 08:10:18;;;;;;;;;;;9.00;99.90;;;;;;4921745;29;19918;-73
2023/04/16 08:12:44;;;;;;;;;;;9.00;99.90;;;;;;4901613;29;19945;-74
2023/04/16 08:15:10;;;;;;;;;;;9.00;99.90;;;;;;4931591;29;20247;-79
2023/04/16 08:17:36;;;;;;;;;;;9.10;99.90;;;;;;4938833;29;19918;-78
2023/04/16 08:20:02;;;;;;;;;;;9.10;99.90;;;;;;4953027;29;19938;-78
2023/04/16 08:22:27;;;;;;;;;;;9.10;99.90;;;;;;4927952;29;20304;-79
2023/04/16 08:24:53;;;;;;;;;;;9.10;99.90;;;;;;4926809;29;20597;-79
2023/04/16 08:27:19;;;;;;;;;;;9.20;99.90;;;;;;4931437;29;20231;-79
2023/04/16 08:29:45;;;;;;;;;;;9.20;99.90;;;;;;4907385;29;19946;-79
2023/04/16 08:32:10;;;;;;;;;;;9.20;99.90;;;;;;4952485;29;19918;-79
2023/04/16 08:34:36;;;;;;;;;;;9.30;99.90;;;;;;4914481;29;19914;-78
2023/04/16 08:37:02;;;;;;;;;;;9.30;99.90;;;;;;4934131;29;19914;-80
2023/04/16 08:39:28;;;;;;;;;;;9.30;99.90;;;;;;4929366;29;19910;-77
2023/04/16 08:41:53;;;;;;;;;;;9.30;99.90;;;;;;4909684;29;20030;-78
2023/04/16 08:44:21;;;;;;;;;;;9.40;99.90;;;;;;4904516;29;19911;-77
2023/04/16 08:46:47;;;;;;;;;;;9.50;99.90;;;;;;4925911;29;19918;-78
2023/04/16 08:49:15;;;;;;;;;;;9.50;99.90;;;;;;4930780;29;20287;-78
2023/04/16 08:51:41;;;;;;;;;;;9.60;99.90;;;;;;4933209;29;19914;-73
2023/04/16 08:54:10;;;;;;;;;;;9.60;99.90;;;;;;4938308;29;20228;-74
2023/04/16 08:56:36;;;;;;;;;;;9.50;99.90;;;;;;4906973;29;19961;-73
2023/04/16 08:59:04;;;;;;;;;;;9.50;99.90;;;;;;4936292;29;19954;-73
2023/04/16 09:01:32;;;;;;;;;;;9.40;99.90;;;;;;4949353;29;19965;-72
2023/04/16 09:04:00;;;;;;;;;;;9.40;99.90;;;;;;4943057;29;19919;-72
2023/04/16 09:06:26;;;;;;;;;;;9.40;99.90;;;;;;4925449;29;19915;-73
2023/04/16 09:08:52;;;;;;;;;;;9.40;99.90;;;;;;4948625;29;19918;-73
2023/04/16 09:11:17;;;;;;;;;;;9.40;99.90;;;;;;4939433;29;20347;-73
2023/04/16 09:13:43;;;;;;;;;;;9.40;99.90;;;;;;4911506;29;20330;-73
2023/04/16 09:16:09;;;;;;;;;;;9.30;99.90;;;;;;4936685;29;19915;-73
2023/04/16 09:18:35;;;;;;;;;;;9.20;99.90;;;;;;4929960;29;19993;-73
2023/04/16 09:21:00;;;;;;;;;;;9.10;99.90;;;;;;4926717;29;19925;-73
2023/04/16 09:23:26;;;;;;;;;;;9.20;99.90;;;;;;4929278;29;19953;-73
2023/04/16 09:25:51;;;;;;;;;;;9.10;99.90;;;;;;4951465;29;20235;-73
2023/04/16 09:28:36;;;;;;;;;;;9.20;99.90;;;;;;4921204;29;19922;-73
2023/04/16 09:31:15;;;;;;;;;;;9.20;99.90;;;;;;4943182;29;19925;-72
2023/04/16 09:33:41;;;;;;;;;;;9.20;99.90;;;;;;4942669;29;19914;-72
2023/04/16 09:36:07;;;;;;;;;;;9.10;99.90;;;;;;4924980;29;19925;-73
2023/04/16 09:38:49;;;;;;;;;;;9.10;99.90;;;;;;4936502;28;20307;-72
2023/04/16 09:41:17;;;;;;;;;;;9.00;99.90;;;;;;4933527;29;20251;-72
2023/04/16 09:43:59;;;;;;;;;;;9.00;99.90;;;;;;4932132;29;19969;-73
2023/04/16 09:46:35;;;;;;;;;;;9.00;99.90;;;;;;4904381;29;19977;-72
2023/04/16 09:49:10;;;;;;;;;;;9.00;99.90;;;;;;4944839;29;19946;-72
2023/04/16 09:51:36;;;;;;;;;;;9.00;99.90;;;;;;4943231;29;19918;-72
2023/04/16 09:54:03;;;;;;;;;;;8.90;99.90;;;;;;4918408;29;20354;-73
2023/04/16 09:56:29;;;;;;;;;;;8.90;99.90;;;;;;4944154;29;20013;-72
2023/04/16 09:58:56;;;;;;;;;;;8.80;99.90;;;;;;4933389;29;19915;-73
2023/04/16 10:01:21;;;;;;;;;;;9.00;99.90;;;;;;4926824;29;19914;-73
2023/04/16 10:03:48;;;;;;;;;;;9.00;99.90;;;;;;4903354;29;20704;-73
2023/04/16 10:06:14;;;;;;;;;;;8.90;99.90;;;;;;4916712;29;19921;-73
2023/04/16 10:08:43;;;;;;;;;;;8.90;99.90;;;;;;4932530;29;19918;-74
2023/04/16 10:11:09;;;;;;;;;;;8.80;99.90;;;;;;4925367;29;19921;-73
2023/04/16 10:13:38;;;;;;;;;;;8.90;99.90;;;;;;4939050;29;19914;-73
2023/04/16 10:16:20;;;;;;;;;;;8.90;99.90;;;;;;4919995;29;19915;-73
2023/04/16 10:18:46;;;;;;;;;;;9.00;99.90;;;;;;4935967;29;20252;-73
2023/04/16 10:21:14;;;;;;;;;;;8.90;99.90;;;;;;4932310;29;19926;-73
2023/04/16 10:23:40;;;;;;;;;;;9.10;99.90;;;;;;4923642;29;19911;-73
2023/04/16 10:26:05;;;;;;;;;;;9.20;99.90;;;;;;4916752;29;19910;-72
2023/04/16 10:28:34;;;;;;;;;;;9.20;99.90;;;;;;4913026;29;19977;-72
2023/04/16 10:31:00;;;;;;;;;;;9.20;99.90;;;;;;4935491;28;19914;-72
2023/04/16 10:33:26;;;;;;;;;;;9.20;99.90;;;;;;4908757;29;19914;-73
2023/04/16 10:35:52;;;;;;;;;;;9.30;99.90;;;;;;4922001;29;20232;-73
2023/04/16 10:38:24;;;;;;;;;;;9.20;99.90;;;;;;4931173;29;20053;-73
2023/04/16 10:40:57;;;;;;;;;;;9.30;99.90;;;;;;4947634;29;19911;-72
2023/04/16 10:43:23;;;;;;;;;;;9.30;99.90;;;;;;4949417;29;20263;-72
2023/04/16 10:45:48;;;;;;;;;;;9.30;99.90;;;;;;4912603;29;19925;-73
2023/04/16 10:48:15;;;;;;;;;;;9.30;99.90;;;;;;4931439;29;20296;-73
2023/04/16 10:50:41;;;;;;;;;;;9.30;99.90;;;;;;4927730;29;19938;-72
2023/04/16 10:53:17;;;;;;;;;;;9.30;99.90;;;;;;4941224;29;20292;-73
2023/04/16 10:55:55;;;;;;;;;;;9.30;99.90;;;;;;4934005;29;19922;-73
2023/04/16 10:58:27;;;;;;;;;;;9.40;99.90;;;;;;4925063;29;19962;-73
2023/04/16 11:00:53;;;;;;;;;;;9.50;99.90;;;;;;4941714;29;19945;-73
2023/04/16 11:03:19;;;;;;;;;;;9.40;99.90;;;;;;4941716;29;20289;-72
2023/04/16 11:05:48;;;;;;;;;;;9.30;99.90;;;;;;4926274;29;20370;-75
2023/04/16 11:08:15;;;;;;;;;;;9.30;99.90;;;;;;4938179;29;20335;-73
2023/04/16 11:10:41;;;;;;;;;;;9.30;99.90;;;;;;4937817;29;20421;-74
2023/04/16 11:13:07;;;;;;;;;;;9.40;99.90;;;;;;4916369;29;19918;-73
2023/04/16 11:15:33;;;;;;;;;;;9.30;99.90;;;;;;4952972;28;19924;-74
2023/04/16 11:18:00;;;;;;;;;;;9.30;99.90;;;;;;4930028;29;19960;-74
2023/04/16 11:20:26;;;;;;;;;;;9.30;99.90;;;;;;4935327;29;19950;-72
2023/04/16 11:22:53;;;;;;;;;;;9.40;99.90;;;;;;4947879;29;19910;-74
2023/04/16 11:25:22;;;;;;;;;;;9.40;99.90;;;;;;4927622;29;20037;-74
2023/04/16 11:27:49;;;;;;;;;;;9.50;99.90;;;;;;4939279;29;19927;-73
2023/04/16 11:30:15;;;;;;;;;;;9.50;99.90;;;;;;4925026;29;19926;-73
2023/04/16 11:32:41;;;;;;;;;;;9.40;99.90;;;;;;4941312;29;19918;-73
2023/04/16 11:35:13;;;;;;;;;;;9.50;99.90;;;;;;4939926;29;19922;-73
2023/04/16 11:37:39;;;;;;;;;;;9.50;99.90;;;;;;4930929;29;19915;-73
2023/04/16 11:40:08;;;;;;;;;;;9.60;99.90;;;;;;4920719;29;19915;-73
2023/04/16 11:42:35;;;;;;;;;;;9.50;99.90;;;;;;4945270;29;19910;-73
2023/04/16 11:45:02;;;;;;;;;;;9.50;99.90;;;;;;4930894;29;19946;-73
2023/04/16 11:47:30;;;;;;;;;;;9.50;99.90;;;;;;4930844;29;20596;-73
2023/04/16 11:49:56;;;;;;;;;;;9.60;99.90;;;;;;4927893;29;19918;-73
2023/04/16 11:52:26;;;;;;;;;;;9.50;99.90;;;;;;4917406;29;19973;-73
2023/04/16 11:54:52;;;;;;;;;;;9.60;99.90;;;;;;4934990;29;20493;-73
2023/04/16 11:57:24;;;;;;;;;;;9.50;99.90;;;;;;4942501;29;20001;-73
2023/04/16 11:59:50;;;;;;;;;;;9.60;99.90;;;;;;4932849;28;19949;-73
2023/04/16 12:02:25;;;;;;;;;;;9.60;99.90;;;;;;4942677;29;19910;-73
2023/04/16 12:04:51;;;;;;;;;;;9.60;99.90;;;;;;4945222;29;19977;-73
2023/04/16 12:07:17;;;;;;;;;;;9.70;99.90;;;;;;4927457;29;19965;-73
2023/04/16 12:09:42;;;;;;;;;;;9.80;99.90;;;;;;4951462;29;20324;-73
2023/04/16 12:12:24;;;;;;;;;;;9.90;99.90;;;;;;4917820;29;20036;-73
2023/04/16 12:14:50;;;;;;;;;;;9.90;99.90;;;;;;4933641;29;20411;-73
2023/04/16 12:17:19;;;;;;;;;;;9.90;99.90;;;;;;4921668;29;19911;-73
2023/04/16 12:20:06;;;;;;;;;;;10.10;99.90;;;;;;4947554;29;20020;-73
2023/04/16 12:22:35;;;;;;;;;;;10.10;99.90;;;;;;4922426;29;19915;-73
2023/04/16 12:25:02;;;;;;;;;;;10.10;99.90;;;;;;4938893;29;19938;-73
2023/04/16 12:28:00;;;;;;;;;;;10.20;99.90;;;;;;4938704;29;19923;-73
2023/04/16 12:30:26;;;;;;;;;;;10.20;99.90;;;;;;4934771;28;20055;-73
2023/04/16 12:33:11;;;;;;;;;;;10.30;99.90;;;;;;4941453;29;19914;-73
2023/04/16 12:35:37;;;;;;;;;;;10.40;99.90;;;;;;4929562;29;19915;-73
2023/04/16 12:38:03;;;;;;;;;;;10.50;99.90;;;;;;4942487;29;19922;-73
2023/04/16 12:40:28;;;;;;;;;;;10.60;99.90;;;;;;4925163;29;19950;-72
2023/04/16 12:42:54;;;;;;;;;;;10.60;99.90;;;;;;4923565;29;19949;-72
2023/04/16 12:45:20;;;;;;;;;;;10.70;99.90;;;;;;4909217;29;19963;-73
2023/04/16 12:47:46;;;;;;;;;;;10.80;99.90;;;;;;4931009;29;20780;-73
2023/04/16 12:50:11;;;;;;;;;;;10.80;99.90;;;;;;4939191;29;19964;-73
2023/04/16 12:52:37;;;;;;;;;;;10.80;99.90;;;;;;4921928;29;19919;-74
2023/04/16 12:55:03;;;;;;;;;;;10.80;99.90;;;;;;4923547;29;19911;-73
2023/04/16 12:57:30;;;;;;;;;;;10.80;99.90;;;;;;4926729;29;19950;-74
2023/04/16 12:59:56;;;;;;;;;;;10.70;99.90;;;;;;4925222;29;19915;-74
2023/04/16 13:02:22;;;;;;;;;;;10.80;99.90;;;;;;4941799;29;20327;-74
2023/04/16 13:04:51;;;;;;;;;;;10.80;99.90;;;;;;4926622;29;19922;-74
2023/04/16 13:07:17;;;;;;;;;;;10.80;99.90;;;;;;4907683;29;19930;-74
2023/04/16 13:09:43;;;;;;;;;;;10.90;99.90;;;;;;4922113;29;19915;-74
2023/04/16 13:12:09;;;;;;;;;;;10.80;99.90;;;;;;4939508;28;19919;-74
2023/04/16 13:14:34;;;;;;;;;;;10.80;99.90;;;;;;4928010;29;19962;-74
2023/04/16 13:17:00;;;;;;;;;;;10.90;99.90;;;;;;4924730;29;19985;-74
2023/04/16 13:19:26;;;;;;;;;;;10.90;99.90;;;;;;4926564;29;19954;-73
2023/04/16 13:21:51;;;;;;;;;;;10.80;99.90;;;;;;4922913;29;19961;-73
2023/04/16 13:24:18;;;;;;;;;;;10.90;99.90;;;;;;4922666;29;19922;-73
2023/04/16 13:26:43;;;;;;;;;;;11.00;99.90;;;;;;4935767;29;19914;-73
2023/04/16 13:29:09;;;;;;;;;;;10.90;99.90;;;;;;4934633;29;19918;-73
2023/04/16 13:31:35;;;;;;;;;;;10.90;99.90;;;;;;4924000;29;19911;-73
2023/04/16 13:34:02;;;;;;;;;;;10.80;99.90;;;;;;4919266;29;20033;-73
2023/04/16 13:36:28;;;;;;;;;;;10.90;99.90;;;;;;4934772;29;19911;-73
2023/04/16 13:38:54;;;;;;;;;;;11.10;99.90;;;;;;4924116;29;19925;-73
2023/04/16 13:41:20;;;;;;;;;;;11.00;99.90;;;;;;4923113;29;19916;-74
2023/04/16 13:43:45;;;;;;;;;;;11.00;99.90;;;;;;4929565;29;19914;-73
2023/04/16 13:46:11;;;;;;;;;;;11.10;99.90;;;;;;4927658;29;19923;-74
2023/04/16 13:48:37;;;;;;;;;;;11.20;99.90;;;;;;4938265;29;20009;-74
2023/04/16 13:51:03;;;;;;;;;;;11.20;99.90;;;;;;4907734;29;19962;-74
2023/04/16 13:53:28;;;;;;;;;;;11.30;99.90;;;;;;4934873;29;20343;-74
2023/04/16 13:55:54;;;;;;;;;;;11.40;99.90;;;;;;4934573;29;19911;-74
2023/04/16 13:58:20;;;;;;;;;;;11.40;99.90;;;;;;4935665;29;19914;-74
2023/04/16 14:00:46;;;;;;;;;;;11.50;99.90;;;;;;4946108;28;20399;-74
2023/04/16 14:03:11;;;;;;;;;;;11.60;99.90;;;;;;4937422;29;19914;-74
2023/04/16 14:05:37;;;;;;;;;;;11.70;99.90;;;;;;4928729;29;19970;-74
2023/04/16 14:08:02;;;;;;;;;;;11.80;99.90;;;;;;4938007;29;19918;-74
2023/04/16 14:10:28;;;;;;;;;;;11.90;99.90;;;;;;4918649;29;19911;-74
2023/04/16 14:12:54;;;;;;;;;;;11.90;99.90;;;;;;4916799;29;19962;-74
2023/04/16 14:15:21;;;;;;;;;;;11.90;99.90;;;;;;4929867;29;19965;-74
2023/04/16 14:17:47;;;;;;;;;;;11.90;99.90;;;;;;4943099;29;20243;-74
2023/04/16 14:20:12;;;;;;;;;;;11.70;99.90;;;;;;4945685;29;20007;-74
2023/04/16 14:22:38;;;;;;;;;;;11.70;99.90;;;;;;4940710;29;19957;-74
2023/04/16 14:25:05;;;;;;;;;;;11.70;99.90;;;;;;4926006;29;19917;-74